Time;durP1;ratioP1;P1;durP2;ratioP2;P2;SDS_P1;SDS_P2;PMS_P1;PMS_P2;Temp;Humidity;BMP_temperature;BMP_pressure;BME280_temperature;BME280_humidity;BME280_pressure;Samples;Min_cycle;Max_cycle;Signal;HPM_P1;HPM_P2
2023/09/08 00:00:43;;;;;;;3.87;3.57;;;24.60;99.90;;;;;;5012350;28;20459;-67
2023/09/08 00:03:10;;;;;;;3.53;3.13;;;24.60;99.90;;;;;;5008352;28;20473;-67
2023/09/08 00:05:37;;;;;;;4.10;3.80;;;24.50;99.90;;;;;;5012575;28;20204;-68
2023/09/08 00:08:04;;;;;;;4.23;3.93;;;24.60;99.90;;;;;;5009268;28;20471;-68
2023/09/08 00:10:31;;;;;;;4.17;3.83;;;24.50;99.90;;;;;;5007368;28;20473;-67
2023/09/08 00:12:59;;;;;;;4.20;3.90;;;24.50;99.90;;;;;;5009606;28;20459;-66
2023/09/08 00:15:26;;;;;;;4.23;3.93;;;24.50;99.90;;;;;;5003670;28;20467;-65
2023/09/08 00:17:53;;;;;;;4.13;3.73;;;24.50;99.90;;;;;;5005016;28;21004;-65
2023/09/08 00:20:19;;;;;;;3.90;3.60;;;24.50;99.90;;;;;;5001952;28;20455;-66
2023/09/08 00:22:46;;;;;;;4.50;4.10;;;24.50;99.90;;;;;;5003685;28;20451;-68
2023/09/08 00:25:13;;;;;;;3.87;3.57;;;24.50;99.90;;;;;;5004575;28;20470;-67
2023/09/08 00:27:39;;;;;;;4.50;4.20;;;24.50;99.90;;;;;;5006528;28;20482;-67
2023/09/08 00:30:09;;;;;;;4.57;4.17;;;24.50;99.90;;;;;;5005621;28;20466;-65
2023/09/08 00:32:36;;;;;;;4.27;3.90;;;24.50;99.90;;;;;;5006083;28;20467;-65
2023/09/08 00:35:02;;;;;;;4.90;4.50;;;24.50;99.90;;;;;;5004189;28;20466;-67
2023/09/08 00:37:29;;;;;;;4.70;4.30;;;24.50;99.90;;;;;;5009828;28;20503;-69
2023/09/08 00:39:56;;;;;;;3.73;3.40;;;24.50;99.90;;;;;;5011107;28;20462;-68
2023/09/08 00:42:22;;;;;;;4.43;4.03;;;24.50;99.90;;;;;;5009496;28;20472;-66
2023/09/08 00:44:49;;;;;;;4.13;3.83;;;24.50;99.90;;;;;;5006607;28;20462;-67
2023/09/08 00:47:18;;;;;;;3.90;3.60;;;24.50;99.90;;;;;;5007909;28;22145;-68
2023/09/08 00:49:45;;;;;;;4.03;3.40;;;24.50;99.90;;;;;;5008569;28;20996;-68
2023/09/08 00:52:12;;;;;;;4.60;4.20;;;24.50;99.90;;;;;;5006601;28;20455;-66
2023/09/08 00:54:39;;;;;;;4.10;3.73;;;24.50;99.90;;;;;;5008108;28;20976;-65
2023/09/08 00:57:07;;;;;;;3.50;3.30;;;24.50;99.90;;;;;;5007521;28;20459;-69
2023/09/08 00:59:35;;;;;;;4.20;3.90;;;24.50;99.90;;;;;;5009066;28;20494;-65
2023/09/08 01:02:03;;;;;;;3.80;3.50;;;24.50;99.90;;;;;;5022204;22;20502;-60
2023/09/08 01:04:33;;;;;;;3.97;3.67;;;24.50;99.90;;;;;;5005492;28;20500;-66
2023/09/08 01:07:00;;;;;;;3.90;3.63;;;24.50;99.90;;;;;;5009014;28;20474;-60
2023/09/08 01:09:27;;;;;;;4.10;3.80;;;24.50;99.90;;;;;;5007423;28;20479;-62
2023/09/08 01:11:55;;;;;;;3.80;3.60;;;24.40;99.90;;;;;;5001735;28;20824;-60
2023/09/08 01:14:22;;;;;;;4.87;4.47;;;24.40;99.90;;;;;;5009391;28;20466;-61
2023/09/08 01:16:48;;;;;;;4.20;3.90;;;24.50;99.90;;;;;;5004316;28;20462;-64
2023/09/08 01:19:17;;;;;;;4.53;4.23;;;24.50;99.90;;;;;;5010398;28;21129;-62
2023/09/08 01:22:25;;;;;;;4.33;4.00;;;24.50;99.90;;;;;;5008592;28;20509;-65
2023/09/08 01:25:16;;;;;;;3.77;3.57;;;24.50;99.90;;;;;;5006787;28;21051;-60
2023/09/08 01:27:48;;;;;;;4.20;3.90;;;24.40;99.90;;;;;;5007346;28;20831;-65
2023/09/08 01:30:16;;;;;;;4.37;3.97;;;24.40;99.90;;;;;;5008746;28;20458;-64
2023/09/08 01:32:44;;;;;;;4.67;4.27;;;24.40;99.90;;;;;;5006487;28;20462;-65
2023/09/08 01:35:11;;;;;;;4.07;3.77;;;24.40;99.90;;;;;;5014191;28;20461;-65
2023/09/08 01:37:41;;;;;;;3.90;3.60;;;24.40;99.90;;;;;;5006459;28;20470;-62
2023/09/08 01:40:11;;;;;;;4.23;3.93;;;24.40;99.90;;;;;;5015215;28;20531;-60
2023/09/08 01:42:38;;;;;;;4.33;3.93;;;24.40;99.90;;;;;;5008485;28;21187;-61
2023/09/08 01:45:05;;;;;;;4.00;3.70;;;24.40;99.90;;;;;;5008555;28;20463;-62
2023/09/08 01:47:32;;;;;;;4.30;4.00;;;24.40;99.90;;;;;;5006480;28;20468;-60
2023/09/08 01:49:59;;;;;;;4.30;3.90;;;24.40;99.90;;;;;;5010508;28;20466;-61
2023/09/08 01:52:26;;;;;;;4.13;3.83;;;24.40;99.90;;;;;;5006655;28;20474;-62
2023/09/08 01:54:52;;;;;;;4.10;3.80;;;24.40;99.90;;;;;;5003727;28;20959;-60
2023/09/08 01:57:21;;;;;;;3.57;3.27;;;24.40;99.90;;;;;;5006874;28;20477;-63
2023/09/08 01:59:47;;;;;;;3.80;3.43;;;24.40;99.90;;;;;;5006835;28;20623;-65
2023/09/08 02:02:14;;;;;;;3.53;3.23;;;24.40;99.90;;;;;;5006234;28;22072;-60
2023/09/08 02:04:41;;;;;;;3.53;3.30;;;24.40;99.90;;;;;;5001795;28;20462;-61
2023/09/08 02:07:08;;;;;;;4.10;3.80;;;24.30;99.90;;;;;;5003328;28;20823;-64
2023/09/08 02:09:36;;;;;;;4.10;3.80;;;24.40;99.90;;;;;;5001964;28;20663;-61
2023/09/08 02:12:04;;;;;;;4.03;3.73;;;24.40;99.90;;;;;;5002731;28;20975;-61
2023/09/08 02:14:32;;;;;;;4.20;3.90;;;24.40;99.90;;;;;;5004566;28;20470;-61
2023/09/08 02:16:58;;;;;;;4.37;4.00;;;24.40;99.90;;;;;;5003402;28;20832;-66
2023/09/08 02:19:25;;;;;;;4.23;3.93;;;24.30;99.90;;;;;;5003664;28;20528;-64
2023/09/08 02:21:52;;;;;;;3.73;3.43;;;24.30;99.90;;;;;;5001367;28;21007;-62
2023/09/08 02:24:18;;;;;;;4.57;4.20;;;24.30;99.90;;;;;;4999132;28;20467;-60
2023/09/08 02:26:45;;;;;;;4.00;3.70;;;24.30;99.90;;;;;;5004249;28;20910;-63
2023/09/08 02:29:12;;;;;;;5.03;4.37;;;24.30;99.90;;;;;;5001007;28;20465;-61
2023/09/08 02:31:40;;;;;;;4.10;3.80;;;24.30;99.90;;;;;;5001879;28;20965;-62
2023/09/08 02:34:07;;;;;;;4.30;3.90;;;24.30;99.90;;;;;;5005403;28;20469;-62
2023/09/08 02:36:34;;;;;;;3.97;3.67;;;24.30;99.90;;;;;;5007139;28;20804;-60
2023/09/08 02:39:00;;;;;;;4.33;4.03;;;24.30;99.90;;;;;;5007578;28;20493;-61
2023/09/08 02:41:27;;;;;;;4.37;4.07;;;24.30;99.90;;;;;;5006357;28;20828;-65
2023/09/08 02:43:54;;;;;;;4.00;3.70;;;24.30;99.90;;;;;;5006448;28;20555;-61
2023/09/08 02:46:20;;;;;;;4.10;3.80;;;24.30;99.90;;;;;;5000989;28;20459;-62
2023/09/08 02:48:48;;;;;;;4.00;3.70;;;24.30;99.90;;;;;;5006272;28;20464;-64
2023/09/08 02:51:15;;;;;;;4.40;4.10;;;24.30;99.90;;;;;;5006626;28;20453;-60
2023/09/08 02:53:42;;;;;;;4.07;3.77;;;24.30;99.90;;;;;;5009096;28;20460;-61
2023/09/08 02:56:09;;;;;;;4.63;4.23;;;24.30;99.90;;;;;;5008850;28;20473;-62
2023/09/08 02:58:36;;;;;;;4.70;3.57;;;24.30;99.90;;;;;;5011914;28;20489;-60
2023/09/08 03:01:14;;;;;;;4.60;3.83;;;24.30;99.90;;;;;;5006190;28;20475;-62
2023/09/08 03:03:41;;;;;;;4.00;3.70;;;24.30;99.90;;;;;;5008933;28;20969;-61
2023/09/08 03:06:09;;;;;;;4.27;3.97;;;24.30;99.90;;;;;;5009764;28;21188;-63
2023/09/08 03:08:37;;;;;;;4.17;3.87;;;24.30;99.90;;;;;;5007295;28;20978;-64
2023/09/08 03:11:04;;;;;;;4.00;3.70;;;24.30;99.90;;;;;;5009015;28;21012;-61
2023/09/08 03:13:31;;;;;;;3.97;3.67;;;24.30;99.90;;;;;;5012386;28;20500;-60
2023/09/08 03:16:02;;;;;;;4.17;3.87;;;24.30;99.90;;;;;;5007950;28;20481;-60
2023/09/08 03:18:29;;;;;;;4.77;3.20;;;24.30;99.90;;;;;;5010179;28;20516;-60
2023/09/08 03:20:55;;;;;;;4.37;3.97;;;24.30;99.90;;;;;;5011793;28;20484;-59
2023/09/08 03:23:23;;;;;;;3.93;3.53;;;24.30;99.90;;;;;;5010312;28;20465;-60
2023/09/08 03:25:50;;;;;;;4.10;3.80;;;24.30;99.90;;;;;;5006354;28;20471;-60
2023/09/08 03:28:17;;;;;;;4.60;4.20;;;24.30;99.90;;;;;;5007049;28;20834;-62
2023/09/08 03:30:43;;;;;;;3.50;3.20;;;24.30;99.90;;;;;;5007246;28;20461;-60
2023/09/08 03:33:10;;;;;;;4.23;3.90;;;24.30;99.90;;;;;;5008828;28;20827;-60
2023/09/08 03:35:37;;;;;;;3.90;3.60;;;24.30;99.90;;;;;;5011401;28;20463;-62
2023/09/08 03:38:04;;;;;;;3.80;3.50;;;24.30;99.90;;;;;;5006710;28;20462;-63
2023/09/08 03:40:32;;;;;;;3.30;3.10;;;24.30;99.90;;;;;;5013481;28;20489;-64
2023/09/08 03:42:59;;;;;;;3.23;2.93;;;24.30;99.90;;;;;;5004246;28;20489;-60
2023/09/08 03:45:25;;;;;;;3.53;3.23;;;24.30;99.90;;;;;;5004301;28;20966;-62
2023/09/08 03:47:52;;;;;;;3.90;3.60;;;24.30;99.90;;;;;;5005989;28;20456;-64
2023/09/08 03:50:19;;;;;;;4.13;3.83;;;24.30;99.90;;;;;;5012966;28;20999;-60
2023/09/08 03:52:45;;;;;;;4.07;3.77;;;24.30;99.90;;;;;;5005665;28;20462;-61
2023/09/08 03:55:12;;;;;;;3.53;3.33;;;24.30;99.90;;;;;;5002087;28;20462;-62
2023/09/08 03:57:40;;;;;;;3.90;3.60;;;24.30;99.90;;;;;;5003965;28;20473;-60
2023/09/08 04:00:10;;;;;;;3.27;3.03;;;24.30;99.90;;;;;;5016503;28;20496;-64
2023/09/08 04:02:36;;;;;;;3.97;3.67;;;24.30;99.90;;;;;;5009571;28;20473;-62
2023/09/08 04:05:04;;;;;;;3.40;3.20;;;24.30;99.90;;;;;;5011424;28;20469;-59
2023/09/08 04:07:30;;;;;;;3.93;3.63;;;24.30;99.90;;;;;;5010138;28;20466;-61
2023/09/08 04:09:57;;;;;;;3.43;3.23;;;24.30;99.90;;;;;;5003719;28;20767;-61
2023/09/08 04:12:24;;;;;;;3.80;3.50;;;24.30;99.90;;;;;;5005169;28;20477;-61
2023/09/08 04:14:52;;;;;;;3.40;3.20;;;24.30;99.90;;;;;;5007476;28;20459;-65
2023/09/08 04:17:19;;;;;;;3.63;3.37;;;24.30;99.90;;;;;;5005979;28;20961;-60
2023/09/08 04:19:45;;;;;;;4.50;4.20;;;24.30;99.90;;;;;;5004282;28;20482;-60
2023/09/08 04:22:12;;;;;;;4.13;3.83;;;24.20;99.90;;;;;;5004559;28;20488;-63
2023/09/08 04:24:39;;;;;;;4.50;3.47;;;24.30;99.90;;;;;;5006081;28;20461;-64
2023/09/08 04:27:06;;;;;;;3.73;3.47;;;24.30;99.90;;;;;;5003946;28;20467;-62
2023/09/08 04:29:33;;;;;;;4.30;3.97;;;24.30;99.90;;;;;;5010950;28;20465;-62
2023/09/08 04:32:08;;;;;;;4.53;4.13;;;24.20;99.90;;;;;;5014959;28;20970;-61
2023/09/08 04:34:36;;;;;;;3.83;3.53;;;24.30;99.90;;;;;;5012712;28;20465;-64
2023/09/08 04:37:03;;;;;;;4.13;3.83;;;24.20;99.90;;;;;;5011357;28;20465;-62
2023/09/08 04:39:29;;;;;;;4.10;3.80;;;24.20;99.90;;;;;;5012229;28;20906;-60
2023/09/08 04:41:56;;;;;;;3.00;2.80;;;24.30;99.90;;;;;;5009480;28;20573;-60
2023/09/08 04:44:23;;;;;;;4.20;3.80;;;24.20;99.90;;;;;;5008585;28;20463;-62
2023/09/08 04:46:50;;;;;;;4.07;3.77;;;24.20;99.90;;;;;;5014004;28;20466;-61
2023/09/08 04:49:18;;;;;;;4.23;3.93;;;24.30;99.90;;;;;;5012642;28;21523;-63
2023/09/08 04:51:45;;;;;;;3.67;3.47;;;24.20;99.90;;;;;;5012737;28;20469;-60
2023/09/08 04:54:11;;;;;;;3.43;3.13;;;24.20;99.90;;;;;;5007369;28;20458;-63
2023/09/08 04:56:39;;;;;;;3.77;3.50;;;24.20;99.90;;;;;;5010644;28;20461;-60
2023/09/08 04:59:06;;;;;;;3.87;3.57;;;24.30;99.90;;;;;;5004011;28;22720;-65
2023/09/08 05:01:33;;;;;;;4.40;3.80;;;24.20;99.90;;;;;;5012770;28;20556;-62
2023/09/08 05:04:00;;;;;;;4.20;3.90;;;24.30;99.90;;;;;;5012464;28;20461;-61
2023/09/08 05:06:28;;;;;;;3.63;3.33;;;24.30;99.90;;;;;;5001815;28;20467;-64
2023/09/08 05:08:55;;;;;;;4.90;4.23;;;24.20;99.90;;;;;;5008543;28;20503;-64
2023/09/08 05:11:22;;;;;;;3.97;3.67;;;24.20;99.90;;;;;;5007061;28;20466;-60
2023/09/08 05:13:48;;;;;;;3.90;3.50;;;24.20;99.90;;;;;;5008129;28;20465;-61
2023/09/08 05:16:17;;;;;;;3.47;3.23;;;24.20;99.90;;;;;;5003248;28;20462;-61
2023/09/08 05:18:44;;;;;;;4.00;3.70;;;24.20;99.90;;;;;;5005929;28;20564;-60
2023/09/08 05:21:11;;;;;;;3.53;3.33;;;24.20;99.90;;;;;;5007377;28;20466;-62
2023/09/08 05:23:39;;;;;;;4.13;3.83;;;24.20;99.90;;;;;;5008474;28;20468;-60
2023/09/08 05:26:05;;;;;;;4.10;3.80;;;24.20;99.90;;;;;;5009134;28;20815;-61
2023/09/08 05:28:32;;;;;;;3.30;3.10;;;24.20;99.90;;;;;;5000567;28;20562;-62
2023/09/08 05:30:59;;;;;;;3.40;3.20;;;24.20;99.90;;;;;;5004748;28;20588;-62
2023/09/08 05:33:25;;;;;;;3.57;3.27;;;24.20;99.90;;;;;;5004443;28;20455;-64
2023/09/08 05:35:52;;;;;;;3.60;3.40;;;24.20;99.90;;;;;;5007985;28;20474;-62
2023/09/08 05:38:19;;;;;;;4.10;3.80;;;24.20;99.90;;;;;;5009083;28;20503;-60
2023/09/08 05:40:47;;;;;;;3.50;3.30;;;24.20;99.90;;;;;;5006922;28;20486;-61
2023/09/08 05:43:13;;;;;;;4.10;3.80;;;24.20;99.90;;;;;;5005644;28;20465;-64
2023/09/08 05:45:40;;;;;;;3.53;3.33;;;24.20;99.90;;;;;;5005500;28;20474;-60
2023/09/08 05:48:07;;;;;;;4.00;3.70;;;24.20;99.90;;;;;;5014301;28;20465;-60
2023/09/08 05:50:34;;;;;;;4.20;3.80;;;24.20;99.90;;;;;;5011369;28;21073;-60
2023/09/08 05:53:00;;;;;;;3.73;3.43;;;24.20;99.90;;;;;;5009142;28;20465;-61
2023/09/08 05:55:27;;;;;;;3.80;3.50;;;24.20;99.90;;;;;;5011717;28;21018;-61
2023/09/08 05:57:55;;;;;;;4.10;3.80;;;24.20;99.90;;;;;;5007180;28;20472;-64
2023/09/08 06:00:22;;;;;;;3.73;3.43;;;24.20;99.90;;;;;;5005571;28;20481;-62
2023/09/08 06:02:49;;;;;;;3.77;3.47;;;24.20;99.90;;;;;;5001084;28;20487;-60
2023/09/08 06:05:15;;;;;;;4.10;3.80;;;24.20;99.90;;;;;;5006034;28;20464;-61
2023/09/08 06:07:42;;;;;;;3.23;3.03;;;24.20;99.90;;;;;;5010313;28;20472;-63
2023/09/08 06:10:09;;;;;;;3.80;3.50;;;24.20;99.90;;;;;;5008331;28;20479;-59
2023/09/08 06:12:36;;;;;;;4.00;3.70;;;24.20;99.90;;;;;;5006446;28;20481;-64
2023/09/08 06:15:06;;;;;;;3.80;3.60;;;24.20;99.90;;;;;;5006873;28;20996;-61
2023/09/08 06:17:33;;;;;;;3.50;3.20;;;24.20;99.90;;;;;;5008484;28;20462;-61
2023/09/08 06:19:59;;;;;;;3.13;2.83;;;24.20;99.90;;;;;;5008891;28;21786;-63
2023/09/08 06:22:26;;;;;;;3.50;3.27;;;24.20;99.90;;;;;;5003704;28;20524;-63
2023/09/08 06:24:53;;;;;;;3.47;3.17;;;24.20;99.90;;;;;;5001409;28;20462;-60
2023/09/08 06:27:20;;;;;;;5.80;4.83;;;24.30;99.90;;;;;;5003331;28;20462;-60
2023/09/08 06:29:46;;;;;;;5.00;4.13;;;24.30;99.90;;;;;;5006007;28;20462;-61
2023/09/08 06:32:14;;;;;;;4.80;4.40;;;24.20;99.90;;;;;;5004504;28;20461;-60
2023/09/08 06:34:42;;;;;;;5.70;5.20;;;24.30;99.90;;;;;;5002378;28;20827;-61
2023/09/08 06:37:09;;;;;;;10.80;6.40;;;24.30;99.90;;;;;;5000080;28;21005;-56
2023/09/08 06:39:36;;;;;;;6.33;4.83;;;24.20;99.90;;;;;;5000181;28;20865;-60
2023/09/08 06:42:03;;;;;;;7.53;5.20;;;24.20;99.90;;;;;;5003018;28;20509;-61
2023/09/08 06:44:30;;;;;;;5.13;4.63;;;24.20;99.90;;;;;;5004858;28;20517;-60
2023/09/08 06:46:56;;;;;;;5.57;4.57;;;24.20;99.90;;;;;;5007534;28;20467;-62
2023/09/08 06:49:24;;;;;;;5.80;5.13;;;24.20;99.90;;;;;;5005849;28;20467;-62
2023/09/08 06:51:51;;;;;;;8.80;5.00;;;24.20;99.90;;;;;;5005658;28;20475;-60
2023/09/08 06:54:18;;;;;;;8.13;5.10;;;24.20;99.90;;;;;;5008824;28;20466;-62
2023/09/08 06:56:45;;;;;;;5.77;5.20;;;24.20;99.90;;;;;;5009785;28;20533;-61
2023/09/08 06:59:12;;;;;;;5.77;5.20;;;24.20;99.90;;;;;;5009028;28;20785;-64
2023/09/08 07:01:38;;;;;;;25.57;6.00;;;24.20;99.90;;;;;;4972780;28;1070999;-64
2023/09/08 07:04:06;;;;;;;6.60;5.77;;;24.20;99.90;;;;;;5012661;28;20465;-60
2023/09/08 07:06:34;;;;;;;8.23;5.50;;;24.20;99.90;;;;;;5013399;28;20476;-62
2023/09/08 07:09:01;;;;;;;6.43;5.00;;;24.20;99.90;;;;;;5010789;28;20469;-60
2023/09/08 07:11:28;;;;;;;8.00;4.67;;;24.20;99.90;;;;;;5012174;28;20461;-61
2023/09/08 07:13:55;;;;;;;4.93;4.53;;;24.20;99.90;;;;;;5008734;28;20462;-64
2023/09/08 07:16:22;;;;;;;4.60;4.00;;;24.20;99.90;;;;;;5009462;28;20998;-61
2023/09/08 07:18:48;;;;;;;6.90;5.57;;;24.20;99.90;;;;;;5010083;28;20464;-60
2023/09/08 07:21:15;;;;;;;5.80;5.27;;;24.20;99.90;;;;;;5011941;28;21028;-62
2023/09/08 07:23:43;;;;;;;9.60;5.67;;;24.20;99.90;;;;;;5006876;28;20935;-60
2023/09/08 07:26:10;;;;;;;11.60;4.83;;;24.20;99.90;;;;;;5012799;28;20454;-61
2023/09/08 07:28:37;;;;;;;9.60;4.67;;;24.20;99.90;;;;;;5010026;28;20913;-62
2023/09/08 07:31:04;;;;;;;8.63;4.50;;;24.20;99.90;;;;;;5008163;28;20458;-63
2023/09/08 07:33:31;;;;;;;5.50;4.60;;;24.20;99.90;;;;;;5013608;28;21003;-64
2023/09/08 07:35:58;;;;;;;6.30;4.70;;;24.20;99.90;;;;;;5012555;28;20462;-61
2023/09/08 07:38:25;;;;;;;8.20;4.80;;;24.20;99.90;;;;;;5013035;28;20465;-60
2023/09/08 07:40:53;;;;;;;9.73;4.80;;;24.20;99.90;;;;;;5008881;28;20851;-61
2023/09/08 07:43:20;;;;;;;7.30;5.53;;;24.20;99.90;;;;;;5014566;28;20476;-60
2023/09/08 07:45:46;;;;;;;5.03;4.37;;;24.20;99.90;;;;;;5011843;28;20480;-60
2023/09/08 07:48:13;;;;;;;13.57;5.33;;;24.20;99.90;;;;;;5011097;28;20807;-60
2023/09/08 07:50:40;;;;;;;6.60;4.90;;;24.20;99.90;;;;;;5007397;28;20473;-60
2023/09/08 07:53:07;;;;;;;4.80;4.40;;;24.30;99.90;;;;;;5012747;28;20987;-59
2023/09/08 07:55:33;;;;;;;6.63;5.37;;;24.30;99.90;;;;;;5011261;28;20838;-60
2023/09/08 07:58:03;;;;;;;4.93;4.47;;;24.30;99.90;;;;;;5011674;28;21219;-62
2023/09/08 08:00:30;;;;;;;13.77;4.73;;;24.30;99.90;;;;;;5008010;28;20560;-59
2023/09/08 08:02:58;;;;;;;6.47;5.40;;;24.20;99.90;;;;;;5009660;28;20481;-60
2023/09/08 08:05:25;;;;;;;5.40;4.90;;;24.30;99.90;;;;;;5011558;28;20454;-60
2023/09/08 08:07:52;;;;;;;4.97;4.53;;;24.30;99.90;;;;;;5006372;28;20484;-61
2023/09/08 08:10:19;;;;;;;6.30;5.00;;;24.30;99.90;;;;;;5010734;28;20459;-63
2023/09/08 08:12:46;;;;;;;5.40;4.90;;;24.30;99.90;;;;;;5007091;28;20463;-60
2023/09/08 08:15:14;;;;;;;6.80;5.33;;;24.30;99.90;;;;;;5017106;28;20720;-59
2023/09/08 08:17:41;;;;;;;5.90;4.80;;;24.30;99.90;;;;;;5015097;28;20451;-64
2023/09/08 08:20:17;;;;;;;4.90;4.50;;;24.30;99.90;;;;;;5012902;28;21016;-61
2023/09/08 08:22:43;;;;;;;6.00;5.40;;;24.30;99.90;;;;;;5009326;28;20455;-59
2023/09/08 08:25:10;;;;;;;4.90;4.50;;;24.30;99.90;;;;;;5009257;28;20473;-60
2023/09/08 08:27:37;;;;;;;4.97;4.57;;;24.30;99.90;;;;;;5007225;28;20471;-59
2023/09/08 08:30:05;;;;;;;6.30;5.23;;;24.30;99.90;;;;;;5009728;28;21415;-58
2023/09/08 08:32:34;;;;;;;6.97;5.80;;;24.30;99.90;;;;;;5013989;28;20494;-59
2023/09/08 08:35:01;;;;;;;5.20;4.70;;;24.30;99.90;;;;;;5013994;28;20459;-60
2023/09/08 08:37:27;;;;;;;6.03;4.47;;;24.30;99.90;;;;;;5014250;28;20450;-59
2023/09/08 08:39:54;;;;;;;4.77;4.27;;;24.30;99.90;;;;;;5014538;28;20466;-60
2023/09/08 08:42:22;;;;;;;5.27;4.87;;;24.30;99.90;;;;;;5017866;28;20836;-63
2023/09/08 08:44:49;;;;;;;5.30;4.80;;;24.30;99.90;;;;;;5017036;28;20879;-62
2023/09/08 08:47:17;;;;;;;5.20;4.70;;;24.30;99.90;;;;;;5013576;28;20467;-58
2023/09/08 08:49:49;;;;;;;5.30;4.90;;;24.30;99.90;;;;;;5006886;28;20825;-59
2023/09/08 08:52:17;;;;;;;5.87;5.07;;;24.30;99.90;;;;;;5012647;28;20465;-62
2023/09/08 08:54:45;;;;;;;5.23;4.90;;;24.30;99.90;;;;;;5011631;28;20459;-58
2023/09/08 08:57:12;;;;;;;4.93;4.40;;;24.30;99.90;;;;;;5010201;28;20459;-59
2023/09/08 08:59:41;;;;;;;5.53;5.07;;;24.30;99.90;;;;;;5014838;28;20835;-60
2023/09/08 09:02:09;;;;;;;4.93;4.53;;;24.30;99.90;;;;;;5014211;28;20486;-59
2023/09/08 09:04:38;;;;;;;5.20;4.80;;;24.30;99.90;;;;;;5012905;28;20928;-58
2023/09/08 09:07:07;;;;;;;5.60;5.10;;;24.30;99.90;;;;;;5011754;28;20468;-60
2023/09/08 09:09:34;;;;;;;5.80;5.20;;;24.30;99.90;;;;;;5010048;28;21008;-60
2023/09/08 09:12:02;;;;;;;5.10;4.70;;;24.30;99.90;;;;;;4988055;28;20466;-61
2023/09/08 09:14:32;;;;;;;8.53;4.90;;;24.30;99.90;;;;;;5005993;28;20453;-59
2023/09/08 09:16:59;;;;;;;5.43;5.00;;;24.30;99.90;;;;;;5008084;28;20492;-61
2023/09/08 09:19:27;;;;;;;4.80;4.40;;;24.30;99.90;;;;;;5012328;28;20882;-60
2023/09/08 09:21:55;;;;;;;5.60;5.17;;;24.30;99.90;;;;;;5011035;28;20482;-60
2023/09/08 09:24:33;;;;;;;4.80;4.30;;;24.30;99.90;;;;;;5012370;28;20478;-59
2023/09/08 09:27:00;;;;;;;5.53;5.03;;;24.30;99.90;;;;;;5011420;28;20462;-64
2023/09/08 09:29:28;;;;;;;5.17;4.77;;;24.30;99.90;;;;;;5009527;28;20460;-62
2023/09/08 09:31:56;;;;;;;5.63;5.13;;;24.30;99.90;;;;;;5010884;28;21061;-59
2023/09/08 09:34:24;;;;;;;4.77;4.37;;;24.30;99.90;;;;;;5007361;28;20822;-60
2023/09/08 09:36:51;;;;;;;5.33;4.77;;;24.30;99.90;;;;;;5006905;28;20470;-62
2023/09/08 09:39:19;;;;;;;4.83;4.43;;;24.30;99.90;;;;;;5003628;28;20542;-62
2023/09/08 09:41:48;;;;;;;5.27;4.77;;;24.30;99.90;;;;;;4994258;28;20541;-64
2023/09/08 09:44:15;;;;;;;5.00;4.50;;;24.30;99.90;;;;;;5004147;28;20478;-65
2023/09/08 09:46:45;;;;;;;5.03;4.63;;;24.30;99.90;;;;;;5002816;28;20462;-64
2023/09/08 09:49:12;;;;;;;5.13;4.73;;;24.30;99.90;;;;;;5002367;28;20513;-65
2023/09/08 09:51:41;;;;;;;5.50;5.00;;;24.30;99.90;;;;;;5003481;28;20465;-64
2023/09/08 09:54:08;;;;;;;5.07;4.67;;;24.30;99.90;;;;;;5000624;28;21041;-61
2023/09/08 09:56:39;;;;;;;5.17;4.67;;;24.30;99.90;;;;;;4999525;28;20958;-60
2023/09/08 09:59:09;;;;;;;5.00;4.60;;;24.30;99.90;;;;;;5000178;28;20729;-57
2023/09/08 10:01:36;;;;;;;5.63;4.60;;;24.30;99.90;;;;;;5000859;28;20479;-62
2023/09/08 10:04:04;;;;;;;4.80;4.03;;;24.30;99.90;;;;;;5002908;28;20882;-63
2023/09/08 10:06:32;;;;;;;5.60;4.67;;;24.30;99.90;;;;;;5007990;28;20469;-56
2023/09/08 10:09:01;;;;;;;8.70;5.50;;;24.30;99.90;;;;;;5008790;28;20454;-52
2023/09/08 10:11:31;;;;;;;4.97;4.57;;;24.40;99.90;;;;;;5009533;28;20487;-54
2023/09/08 10:14:00;;;;;;;5.70;5.10;;;24.40;99.90;;;;;;5005595;28;20741;-50
2023/09/08 10:16:35;;;;;;;4.97;4.50;;;24.40;99.90;;;;;;5008753;28;20535;-52
2023/09/08 10:19:04;;;;;;;5.33;4.63;;;24.40;99.90;;;;;;5004418;28;20826;-52
2023/09/08 10:21:34;;;;;;;5.53;5.10;;;24.50;99.90;;;;;;5004878;28;20490;-51
2023/09/08 10:24:08;;;;;;;4.87;4.40;;;24.50;99.90;;;;;;5007051;28;20818;-52
2023/09/08 10:26:37;;;;;;;6.80;4.40;;;24.50;99.90;;;;;;5005732;28;20458;-54
2023/09/08 10:29:04;;;;;;;4.70;4.40;;;24.50;99.90;;;;;;5000432;28;21935;-57
2023/09/08 10:31:32;;;;;;;4.90;4.50;;;24.50;99.90;;;;;;5003622;28;20521;-50
2023/09/08 10:33:59;;;;;;;4.40;4.10;;;24.50;99.90;;;;;;4999806;28;20473;-52
2023/09/08 10:36:27;;;;;;;4.30;4.00;;;24.60;99.90;;;;;;5008673;28;20955;-54
2023/09/08 10:38:56;;;;;;;4.70;4.30;;;24.60;99.90;;;;;;5000878;28;20463;-55
2023/09/08 10:41:32;;;;;;;8.90;4.97;;;24.60;99.90;;;;;;5001237;28;20560;-52
2023/09/08 10:44:04;;;;;;;5.10;4.53;;;24.60;99.90;;;;;;4992865;28;20462;-51
2023/09/08 10:46:33;;;;;;;6.77;4.23;;;24.60;99.90;;;;;;5006907;28;20455;-49
2023/09/08 10:49:04;;;;;;;5.20;4.80;;;24.60;99.90;;;;;;5006397;28;20466;-52
2023/09/08 10:51:31;;;;;;;7.33;4.73;;;24.70;99.90;;;;;;5005930;28;20466;-55
2023/09/08 10:53:58;;;;;;;5.60;4.37;;;24.70;99.90;;;;;;5009337;28;21001;-53
2023/09/08 10:56:29;;;;;;;5.50;4.57;;;24.70;99.90;;;;;;5007853;28;20466;-55
2023/09/08 10:58:56;;;;;;;4.20;3.80;;;24.70;99.90;;;;;;5004216;28;20454;-55
2023/09/08 11:01:26;;;;;;;8.03;4.90;;;24.80;99.90;;;;;;5008695;28;20974;-55
2023/09/08 11:03:54;;;;;;;4.60;4.07;;;24.80;99.90;;;;;;5008257;28;20455;-57
2023/09/08 11:06:23;;;;;;;5.13;4.63;;;24.80;99.90;;;;;;5008420;28;20464;-57
2023/09/08 11:08:52;;;;;;;4.70;4.23;;;24.80;99.90;;;;;;5000375;28;20459;-53
2023/09/08 11:11:20;;;;;;;6.57;4.80;;;24.80;99.90;;;;;;5002652;28;20467;-56
2023/09/08 11:13:46;;;;;;;5.30;4.80;;;24.80;99.90;;;;;;5002206;28;20463;-56
2023/09/08 11:16:14;;;;;;;5.80;4.80;;;24.90;99.90;;;;;;5009037;28;20577;-58
2023/09/08 11:18:42;;;;;;;5.80;5.20;;;24.90;99.90;;;;;;5015936;28;20462;-56
2023/09/08 11:21:11;;;;;;;4.00;3.70;;;24.90;99.90;;;;;;5004819;28;20514;-59
2023/09/08 11:23:38;;;;;;;5.80;4.60;;;24.90;99.90;;;;;;5004349;28;20470;-51
2023/09/08 11:26:06;;;;;;;5.10;4.60;;;24.90;99.90;;;;;;5005033;28;20502;-54
2023/09/08 11:28:33;;;;;;;4.80;4.40;;;24.90;99.90;;;;;;5005300;28;20466;-55
2023/09/08 11:31:00;;;;;;;4.87;4.47;;;25.00;99.90;;;;;;5005505;28;20485;-54
2023/09/08 11:33:26;;;;;;;4.50;4.20;;;25.00;99.90;;;;;;5005061;28;20463;-54
2023/09/08 11:35:53;;;;;;;5.07;4.67;;;25.00;99.90;;;;;;5004590;28;21114;-54
2023/09/08 11:38:26;;;;;;;5.27;4.87;;;25.00;99.90;;;;;;5005481;28;20925;-52
2023/09/08 11:40:53;;;;;;;4.57;4.10;;;25.00;99.90;;;;;;5007517;28;20569;-51
2023/09/08 11:43:20;;;;;;;4.70;4.40;;;25.00;99.90;;;;;;5003059;28;20478;-54
2023/09/08 11:45:47;;;;;;;4.93;4.63;;;25.00;99.90;;;;;;5004820;28;20463;-54
2023/09/08 11:48:15;;;;;;;5.40;4.43;;;25.00;99.90;;;;;;5004127;28;20451;-51
2023/09/08 11:50:42;;;;;;;5.17;4.70;;;25.10;99.90;;;;;;5003684;28;21528;-51
2023/09/08 11:53:09;;;;;;;4.27;3.97;;;25.10;99.90;;;;;;5001376;28;21519;-54
2023/09/08 11:55:37;;;;;;;5.43;4.70;;;25.10;99.90;;;;;;5000207;28;20470;-56
2023/09/08 11:58:05;;;;;;;4.30;3.90;;;25.10;99.90;;;;;;5001405;28;20470;-56
2023/09/08 12:00:32;;;;;;;4.67;4.27;;;25.10;99.90;;;;;;5002863;28;20455;-55
2023/09/08 12:03:11;;;;;;;6.10;4.43;;;25.10;99.90;;;;;;5002897;28;20491;-53
2023/09/08 12:05:38;;;;;;;4.17;3.83;;;25.10;99.90;;;;;;5000931;28;21203;-53
2023/09/08 12:08:06;;;;;;;5.03;4.60;;;25.10;99.90;;;;;;5000383;28;20470;-51
2023/09/08 12:10:41;;;;;;;4.40;3.70;;;25.20;99.90;;;;;;5003980;28;20464;-55
2023/09/08 12:13:08;;;;;;;7.37;4.63;;;25.20;99.90;;;;;;5000986;28;20470;-53
2023/09/08 12:15:36;;;;;;;5.20;4.70;;;25.20;99.90;;;;;;5003533;28;20463;-57
2023/09/08 12:18:05;;;;;;;5.00;4.60;;;25.20;99.90;;;;;;5004839;28;20479;-51
2023/09/08 12:20:32;;;;;;;4.23;3.90;;;25.20;99.90;;;;;;5009139;28;20463;-53
2023/09/08 12:23:01;;;;;;;4.30;4.00;;;25.20;99.90;;;;;;5007697;28;20502;-51
2023/09/08 12:25:31;;;;;;;4.50;4.10;;;25.20;99.90;;;;;;5007202;28;20537;-52
2023/09/08 12:27:59;;;;;;;4.90;4.50;;;25.20;99.90;;;;;;5000210;28;20973;-54
2023/09/08 12:30:29;;;;;;;4.90;4.50;;;25.20;99.90;;;;;;5007113;28;20971;-51
2023/09/08 12:32:58;;;;;;;4.93;4.53;;;25.30;99.90;;;;;;5003456;28;20546;-51
2023/09/08 12:45:33;;;;;;;4.87;4.47;;;25.30;99.90;;;;;;4986628;28;20426;-50
2023/09/08 12:48:02;;;;;;;4.93;4.50;;;25.30;99.90;;;;;;4997259;28;20808;-53
2023/09/08 12:50:29;;;;;;;4.10;3.80;;;25.30;99.90;;;;;;4997000;28;20459;-53
2023/09/08 12:52:56;;;;;;;5.00;4.60;;;25.30;99.90;;;;;;4995808;28;20462;-52
2023/09/08 12:55:24;;;;;;;4.87;4.47;;;25.30;99.90;;;;;;4995963;28;20470;-55
2023/09/08 15:26:07;;;;;;;7.03;3.90;;;25.20;99.90;;;;;;5005316;28;20441;-54